createdAt,value
2019-04-28T00:01:31.173Z,100913.11
2019-04-28T00:03:57.063Z,100915.20
2019-04-28T00:06:22.843Z,100907.30
2019-04-28T00:08:48.743Z,100914.34
2019-04-28T00:11:14.533Z,100919.94
2019-04-28T00:13:41.782Z,100919.29
2019-04-28T00:16:07.635Z,100921.17
2019-04-28T00:18:33.428Z,100921.17
2019-04-28T00:21:10.939Z,100926.89
2019-04-28T00:23:47.606Z,100922.89
2019-04-28T00:26:31.091Z,100926.23
2019-04-28T00:28:56.957Z,100925.97
2019-04-28T00:31:22.760Z,100923.15
2019-04-28T00:33:48.560Z,100928.61
2019-04-28T00:36:14.345Z,100925.32
2019-04-28T00:38:41.528Z,100922.00
2019-04-28T00:41:07.353Z,100930.42
2019-04-28T00:43:33.150Z,100930.42
2019-04-28T00:46:00.595Z,100932.45
2019-04-28T00:48:26.847Z,100936.34
2019-04-28T00:50:52.635Z,100922.77
2019-04-28T00:53:18.426Z,100934.51
2019-04-28T00:55:44.223Z,100931.96
2019-04-28T00:58:10.915Z,100926.22
2019-04-28T01:00:41.492Z,100926.22
2019-04-28T01:03:07.338Z,100931.50
2019-04-28T01:05:33.116Z,100931.50
2019-04-28T01:07:58.911Z,100939.06
2019-04-28T01:10:25.905Z,100940.24
2019-04-28T01:12:51.701Z,100934.47
2019-04-28T01:15:22.180Z,100934.47
2019-04-28T01:17:49.877Z,100941.45
2019-04-28T01:20:19.554Z,100949.18
2019-04-28T01:22:45.290Z,100949.18
2019-04-28T01:25:11.184Z,100943.33
2019-04-28T01:27:40.297Z,100955.33
2019-04-28T01:30:11.028Z,100953.86
2019-04-28T01:32:43.655Z,100958.77
2019-04-28T01:35:09.761Z,100960.25
2019-04-28T01:37:35.553Z,100960.25
2019-04-28T01:40:01.461Z,100957.62
2019-04-28T01:42:27.239Z,100954.65
2019-04-28T01:44:53.034Z,100957.80
2019-04-28T01:47:20.474Z,100950.03
2019-04-28T01:49:46.418Z,100968.75
2019-04-28T01:52:12.201Z,100968.75
2019-04-28T01:54:40.076Z,100966.86
2019-04-28T01:57:05.728Z,100965.19
2019-04-28T01:59:31.521Z,100964.82
2019-04-28T02:01:57.308Z,100962.13
2019-04-28T02:04:23.092Z,100967.07
2019-04-28T02:06:52.027Z,100964.38
2019-04-28T02:09:19.521Z,100969.23
2019-04-28T02:11:45.666Z,100969.23
2019-04-28T02:14:11.459Z,100952.06
2019-04-28T02:16:37.504Z,100952.06
2019-04-28T02:19:03.519Z,100953.13
2019-04-28T02:21:37.010Z,100953.13
2019-04-28T02:24:21.211Z,100959.61
2019-04-28T02:26:47.009Z,100959.61
2019-04-28T02:29:12.788Z,100950.80
2019-04-28T02:31:41.457Z,100962.25
2019-04-28T02:34:06.433Z,100958.11
2019-04-28T02:36:32.223Z,100956.77
2019-04-28T02:38:58.007Z,100961.74
2019-04-28T02:41:23.800Z,100965.91
2019-04-28T02:43:51.028Z,100966.48
2019-04-28T02:46:17.097Z,100966.97
2019-04-28T02:48:42.894Z,100963.40
2019-04-28T02:51:16.396Z,100963.36
2019-04-28T02:53:42.884Z,100969.05
2019-04-28T02:56:11.242Z,100962.48
2019-04-28T02:58:36.561Z,100972.34
2019-04-28T03:01:12.971Z,100972.34
2019-04-28T03:03:30.885Z,100975.27
2019-04-28T03:05:56.740Z,100975.27
2019-04-28T03:08:22.676Z,100980.55
2019-04-28T03:10:50.910Z,100981.53
2019-04-28T03:13:16.219Z,100992.47
2019-04-28T03:15:42.011Z,100992.47
2019-04-28T03:18:07.905Z,100987.00
2019-04-28T03:20:33.704Z,100990.59
2019-04-28T03:23:00.964Z,101001.66
2019-04-28T03:25:46.670Z,101003.64
2019-04-28T03:28:14.386Z,101004.05
2019-04-28T03:30:44.684Z,100992.07
2019-04-28T03:33:18.402Z,100993.89
2019-04-28T03:35:43.863Z,100992.02
2019-04-28T03:38:07.809Z,100993.01
2019-04-28T03:40:33.920Z,100993.01
2019-04-28T03:43:02.852Z,101002.31
2019-04-28T03:45:35.347Z,101000.11
2019-04-28T03:48:01.161Z,101001.88
2019-04-28T03:50:26.938Z,101013.09
2019-04-28T03:52:52.728Z,101008.36
2019-04-28T03:55:21.161Z,101014.02
2019-04-28T03:57:46.225Z,101015.39
2019-04-28T04:00:12.510Z,101015.45
2019-04-28T04:02:40.919Z,101018.58
2019-04-28T04:05:06.006Z,101015.98
2019-04-28T04:07:31.790Z,101018.81
2019-04-28T04:10:11.162Z,101024.10
2019-04-28T04:12:50.890Z,101020.98
2019-04-28T04:15:25.361Z,101020.98
2019-04-28T04:18:05.025Z,101017.79
2019-04-28T04:20:31.190Z,101024.06
2019-04-28T04:22:57.021Z,101031.76
2019-04-28T04:25:22.813Z,101031.76
2019-04-28T04:27:50.231Z,101027.22
2019-04-28T04:30:16.967Z,101038.59
2019-04-28T04:32:42.755Z,101038.59
2019-04-28T04:35:10.382Z,101041.45
2019-04-28T04:37:36.247Z,101038.33
2019-04-28T04:40:03.243Z,101038.33
2019-04-28T04:42:30.698Z,101039.70
2019-04-28T04:44:56.644Z,101023.18
2019-04-28T04:47:22.425Z,101032.52
2019-04-28T04:49:50.328Z,101035.50
2019-04-28T04:52:15.932Z,101036.55
2019-04-28T04:54:41.727Z,101036.55
2019-04-28T04:57:07.532Z,101051.02
2019-04-28T04:59:34.629Z,101051.02
2019-04-28T05:02:02.487Z,101047.41
2019-04-28T05:04:42.019Z,101047.41
2019-04-28T05:07:07.808Z,101052.34
2019-04-28T05:09:33.602Z,101052.34
2019-04-28T05:11:59.830Z,101056.70
2019-04-28T05:14:25.679Z,101053.84
2019-04-28T05:16:51.461Z,101059.53
2019-04-28T05:19:17.263Z,101068.17
2019-04-28T05:21:43.044Z,101071.77
2019-04-28T05:24:26.929Z,101070.74
2019-04-28T05:26:52.723Z,101075.12
2019-04-28T05:29:19.917Z,101075.12
2019-04-28T05:31:46.329Z,101077.81
2019-04-28T05:34:12.111Z,101082.88
2019-04-28T05:36:42.460Z,101089.62
2019-04-28T05:39:05.897Z,101084.81
2019-04-28T05:41:31.701Z,101088.14
2019-04-28T05:43:57.475Z,101088.53
2019-04-28T05:46:23.282Z,101088.53
2019-04-28T05:48:51.320Z,101088.83
2019-04-28T05:51:19.904Z,101088.83
2019-04-28T05:53:53.588Z,101088.83
2019-04-28T05:56:20.384Z,101094.87
2019-04-28T05:58:48.049Z,101093.20
2019-04-28T06:01:15.764Z,101086.49
2019-04-28T06:03:42.255Z,101086.49
2019-04-28T06:06:10.113Z,101101.87
2019-04-28T06:08:37.649Z,101105.20
2019-04-28T06:11:21.997Z,101110.04
2019-04-28T06:13:47.797Z,101110.08
2019-04-28T06:16:13.583Z,101107.16
2019-04-28T06:18:42.101Z,101109.42
2019-04-28T06:21:07.151Z,101119.25
2019-04-28T06:23:32.939Z,101108.41
2019-04-28T06:25:58.740Z,101121.46
2019-04-28T06:28:24.530Z,101111.95
2019-04-28T06:30:50.355Z,101122.18
2019-04-28T06:33:16.142Z,101122.18
2019-04-28T06:35:41.942Z,101121.16
2019-04-28T06:38:07.729Z,101118.83
2019-04-28T06:40:33.523Z,101117.84
2019-04-28T06:42:59.311Z,101126.72
2019-04-28T06:45:25.094Z,101138.50
2019-04-28T06:47:50.897Z,101133.20
2019-04-28T06:50:16.676Z,101142.84
2019-04-28T06:52:42.479Z,101149.39
2019-04-28T06:55:08.465Z,101159.38
2019-04-28T06:57:34.257Z,101155.28
2019-04-28T07:00:00.044Z,101156.95
2019-04-28T07:02:25.834Z,101161.95
2019-04-28T07:05:01.261Z,101158.75
2019-04-28T07:07:19.330Z,101163.03
2019-04-28T07:09:45.112Z,101166.39
2019-04-28T07:12:10.908Z,101175.11
2019-04-28T07:14:36.699Z,101172.41
2019-04-28T07:17:02.497Z,101177.48
2019-04-28T07:19:28.303Z,101176.83
2019-04-28T07:21:55.991Z,101170.11
2019-04-28T07:24:21.780Z,101182.72
2019-04-28T07:26:47.574Z,101176.59
2019-04-28T07:29:13.360Z,101182.09
2019-04-28T07:31:39.304Z,101173.70
2019-04-28T07:34:05.081Z,101177.34
2019-04-28T07:36:30.865Z,101172.05
2019-04-28T07:38:56.663Z,101167.08
2019-04-28T07:41:22.443Z,101171.34
2019-04-28T07:43:48.249Z,101171.31
2019-04-28T07:46:14.032Z,101176.75
2019-04-28T07:48:39.824Z,101173.63
2019-04-28T07:51:05.615Z,101180.66
2019-04-28T07:53:39.081Z,101183.36
2019-04-28T07:56:04.895Z,101188.34
2019-04-28T07:58:30.711Z,101188.34
2019-04-28T08:00:56.474Z,101187.77
2019-04-28T08:03:22.261Z,101185.13
2019-04-28T08:05:48.040Z,101196.92
2019-04-28T08:08:13.835Z,101199.76
2019-04-28T08:10:39.969Z,101196.41
2019-04-28T08:13:05.757Z,101207.44
2019-04-28T08:15:31.535Z,101207.44
2019-04-28T08:17:57.326Z,101214.98
2019-04-28T08:20:23.134Z,101221.58
2019-04-28T08:22:48.917Z,101222.55
2019-04-28T08:25:14.707Z,101233.45
2019-04-28T08:27:40.494Z,101231.91
2019-04-28T08:30:06.588Z,101236.89
2019-04-28T08:32:34.293Z,101243.02
2019-04-28T08:35:00.092Z,101233.14
2019-04-28T08:37:25.879Z,101233.14
2019-04-28T08:39:51.693Z,101243.95
2019-04-28T08:42:17.464Z,101243.84
2019-04-28T08:44:43.254Z,101240.19
2019-04-28T08:47:09.336Z,101244.61
2019-04-28T08:49:35.148Z,101246.42
2019-04-28T08:52:00.930Z,101243.99
2019-04-28T08:54:26.911Z,101252.09
2019-04-28T08:56:52.696Z,101252.09
2019-04-28T08:59:18.560Z,101258.55
2019-04-28T09:01:44.339Z,101252.98
2019-04-28T09:04:15.510Z,101263.64
2019-04-28T09:06:37.954Z,101267.59
2019-04-28T09:09:06.046Z,101275.62
2019-04-28T09:11:31.950Z,101279.34
2019-04-28T09:13:57.811Z,101284.25
2019-04-28T09:16:23.614Z,101285.77
2019-04-28T09:18:49.489Z,101298.41
2019-04-28T09:21:15.286Z,101297.88
2019-04-28T09:23:41.790Z,101306.06
2019-04-28T09:26:07.703Z,101310.45
2019-04-28T09:28:33.498Z,101313.58
2019-04-28T09:30:59.315Z,101319.03
2019-04-28T09:33:26.264Z,101318.66
2019-04-28T09:35:52.169Z,101331.73
2019-04-28T09:38:19.173Z,101321.13
2019-04-28T09:40:45.631Z,101314.08
2019-04-28T09:43:16.093Z,101311.41
2019-04-28T09:45:52.748Z,101313.59
2019-04-28T09:48:18.771Z,101316.86
2019-04-28T09:50:44.560Z,101310.12
2019-04-28T09:53:10.355Z,101315.23
2019-04-28T09:55:36.142Z,101318.44
2019-04-28T09:58:01.936Z,101319.62
2019-04-28T10:00:27.715Z,101328.16
2019-04-28T10:02:53.511Z,101329.23
2019-04-28T10:05:19.299Z,101336.11
2019-04-28T10:07:45.091Z,101339.50
2019-04-28T10:10:11.145Z,101340.38
2019-04-28T10:12:36.954Z,101341.38
2019-04-28T10:15:07.523Z,101344.41
2019-04-28T10:17:33.458Z,101346.22
2019-04-28T10:19:59.417Z,101353.88
2019-04-28T10:22:25.216Z,101354.31
2019-04-28T10:24:51.044Z,101366.17
2019-04-28T10:27:16.914Z,101364.14
2019-04-28T10:29:42.701Z,101365.64
2019-04-28T10:32:08.594Z,101369.08
2019-04-28T10:34:35.399Z,101379.50
2019-04-28T10:37:02.330Z,101380.13
2019-04-28T10:39:32.462Z,101375.80
2019-04-28T10:41:58.309Z,101378.65
2019-04-28T10:44:25.162Z,101379.52
2019-04-28T10:46:51.051Z,101390.30
2019-04-28T10:49:16.975Z,101384.89
2019-04-28T10:51:42.739Z,101390.11
2019-04-28T10:54:08.538Z,101385.91
2019-04-28T10:56:34.425Z,101396.02
2019-04-28T10:59:00.547Z,101397.55
2019-04-28T11:01:26.369Z,101399.53
2019-04-28T11:03:54.055Z,101399.53
2019-04-28T11:06:19.851Z,101413.20
2019-04-28T11:09:02.280Z,101406.02
2019-04-28T11:11:28.164Z,101412.61
2019-04-28T11:13:54.055Z,101412.61
2019-04-28T11:16:21.756Z,101412.23
2019-04-28T11:18:47.575Z,101412.23
2019-04-28T11:21:13.356Z,101417.47
2019-04-28T11:23:39.249Z,101419.30
2019-04-28T11:26:05.040Z,101418.96
2019-04-28T11:28:30.821Z,101415.97
2019-04-28T11:30:56.640Z,101420.13
2019-04-28T11:33:24.328Z,101418.59
2019-04-28T11:35:50.735Z,101424.50
2019-04-28T11:38:16.530Z,101424.50
2019-04-28T11:40:42.322Z,101424.84
2019-04-28T11:43:08.115Z,101425.33
2019-04-28T11:45:33.920Z,101433.74
2019-04-28T11:47:59.762Z,101439.77
2019-04-28T11:50:25.596Z,101448.23
2019-04-28T11:52:51.379Z,101455.27
2019-04-28T11:55:17.173Z,101456.95
2019-04-28T11:57:42.974Z,101452.23
2019-04-28T12:00:13.678Z,101459.31
2019-04-28T12:02:39.484Z,101463.01
2019-04-28T12:05:05.478Z,101468.07
2019-04-28T12:07:31.257Z,101471.63
2019-04-28T12:10:10.731Z,101473.50
2019-04-28T12:12:47.446Z,101481.30
2019-04-28T12:15:32.846Z,101476.78
2019-04-28T12:18:03.418Z,101487.55
2019-04-28T12:20:29.219Z,101487.55
2019-04-28T12:22:55.016Z,101483.98
2019-04-28T12:25:20.810Z,101492.77
2019-04-28T12:27:46.598Z,101491.06
2019-04-28T12:30:12.790Z,101487.49
2019-04-28T12:32:38.606Z,101489.52
2019-04-28T12:35:04.588Z,101489.52
2019-04-28T12:37:30.383Z,101490.64
2019-04-28T12:39:56.173Z,101505.84
2019-04-28T12:42:21.992Z,101505.84
2019-04-28T12:44:47.775Z,101504.80
2019-04-28T12:47:13.573Z,101510.16
2019-04-28T12:49:41.259Z,101508.80
2019-04-28T12:52:08.065Z,101507.83
2019-04-28T12:54:35.760Z,101507.30
2019-04-28T12:57:04.131Z,101507.30
2019-04-28T12:59:31.822Z,101501.09
2019-04-28T13:02:05.183Z,101502.62
2019-04-28T13:04:35.686Z,101498.88
2019-04-28T13:07:02.970Z,101494.30
2019-04-28T13:09:28.747Z,101501.20
2019-04-28T13:11:54.628Z,101500.38
2019-04-28T13:14:20.417Z,101505.39
2019-04-28T13:16:46.323Z,101503.98
2019-04-28T13:19:12.194Z,101504.47
2019-04-28T13:21:38.005Z,101510.40
2019-04-28T13:24:03.937Z,101514.44
2019-04-28T13:26:29.755Z,101516.34
2019-04-28T13:28:55.554Z,101514.91
2019-04-28T13:31:21.365Z,101524.28
2019-04-28T13:33:55.802Z,101526.98
2019-04-28T13:36:15.475Z,101527.47
2019-04-28T13:38:41.350Z,101532.11
2019-04-28T13:41:07.231Z,101538.42
2019-04-28T13:43:33.039Z,101543.29
2019-04-28T13:45:58.848Z,101539.68
2019-04-28T13:48:24.636Z,101540.21
2019-04-28T13:50:50.464Z,101540.34
2019-04-28T13:53:16.221Z,101547.03
2019-04-28T13:55:44.034Z,101537.78
2019-04-28T13:58:09.928Z,101547.51
2019-04-28T14:00:37.657Z,101540.88
2019-04-28T14:03:07.412Z,101535.36
2019-04-28T14:05:51.378Z,101538.95
2019-04-28T14:08:17.178Z,101540.64
2019-04-28T14:10:43.020Z,101546.80
2019-04-28T14:13:09.168Z,101542.91
2019-04-28T14:15:34.999Z,101545.21
2019-04-28T14:18:00.786Z,101549.00
2019-04-28T14:20:26.588Z,101542.54
2019-04-28T14:22:52.379Z,101537.72
2019-04-28T14:25:18.176Z,101545.99
2019-04-28T14:27:43.977Z,101546.48
2019-04-28T14:30:10.081Z,101501.13
2019-04-28T14:32:35.901Z,101560.63
2019-04-28T14:35:05.619Z,101560.63
2019-04-28T14:37:31.371Z,101564.30
2019-04-28T14:39:57.242Z,101565.30
2019-04-28T14:42:22.971Z,101570.24
2019-04-28T14:44:48.892Z,101566.86
2019-04-28T14:47:14.644Z,101568.61
2019-04-28T14:49:40.473Z,101573.95
2019-04-28T14:52:06.344Z,101575.27
2019-04-28T14:54:32.161Z,101579.46
2019-04-28T14:56:57.996Z,101577.24
2019-04-28T14:59:23.831Z,101579.28
2019-04-28T15:02:08.043Z,101583.17
2019-04-28T15:04:53.918Z,101565.39
2019-04-28T15:07:39.496Z,101580.52
2019-04-28T15:10:22.146Z,101587.41
2019-04-28T15:12:47.939Z,101586.44
2019-04-28T15:15:13.844Z,101583.07
2019-04-28T15:17:39.795Z,101582.39
2019-04-28T15:20:05.633Z,101587.60
2019-04-28T15:22:31.533Z,101577.14
2019-04-28T15:24:57.363Z,101579.70
2019-04-28T15:27:23.164Z,101589.47
2019-04-28T15:29:50.353Z,101592.66
2019-04-28T15:32:16.274Z,101588.04
2019-04-28T15:34:42.340Z,101588.33
2019-04-28T15:37:09.916Z,101599.55
2019-04-28T15:39:35.932Z,101591.77
2019-04-28T15:42:01.759Z,101586.84
2019-04-28T15:44:27.541Z,101593.45
2019-04-28T15:46:53.338Z,101586.19
2019-04-28T15:49:19.231Z,101590.84
2019-04-28T15:51:45.027Z,101592.92
2019-04-28T15:54:10.815Z,101596.91
2019-04-28T15:56:38.809Z,101587.58
2019-04-28T15:59:05.295Z,101595.44
2019-04-28T16:01:31.223Z,101600.22
2019-04-28T16:03:57.002Z,101602.17
2019-04-28T16:06:22.813Z,101598.45
2019-04-28T16:08:48.738Z,101600.41
2019-04-28T16:11:14.747Z,101601.03
2019-04-28T16:13:40.488Z,101599.45
2019-04-28T16:16:06.276Z,101599.66
2019-04-28T16:18:32.077Z,101600.37
2019-04-28T16:20:57.948Z,101605.34
2019-04-28T16:23:23.961Z,101596.68
2019-04-28T16:25:49.890Z,101602.05
2019-04-28T16:28:15.671Z,101601.54
2019-04-28T16:30:43.416Z,101611.34
2019-04-28T16:33:09.222Z,101615.27
2019-04-28T16:35:35.000Z,101619.97
2019-04-28T16:38:00.808Z,101622.00
2019-04-28T16:40:26.847Z,101619.66
2019-04-28T16:42:52.637Z,101625.44
2019-04-28T16:45:18.823Z,101619.30
2019-04-28T16:47:44.757Z,101620.26
2019-04-28T16:50:10.715Z,101618.62
2019-04-28T16:52:36.523Z,101622.09
2019-04-28T16:55:13.980Z,101637.96
2019-04-28T16:57:41.719Z,101636.59
2019-04-28T17:00:09.402Z,101633.68
2019-04-28T17:02:35.994Z,101645.97
2019-04-28T17:05:02.081Z,101639.67
2019-04-28T17:07:27.874Z,101645.59
2019-04-28T17:09:53.662Z,101641.26
2019-04-28T17:12:19.457Z,101644.70
2019-04-28T17:14:45.248Z,101650.11
2019-04-28T17:17:11.127Z,101655.62
2019-04-28T17:19:36.936Z,101650.63
2019-04-28T17:22:02.844Z,101658.20
2019-04-28T17:24:31.229Z,101659.02
2019-04-28T17:26:57.035Z,101658.92
2019-04-28T17:29:22.847Z,101660.56
2019-04-28T17:31:48.738Z,101660.56
2019-04-28T17:34:14.540Z,101662.73
2019-04-28T17:36:40.317Z,101664.08
2019-04-28T17:39:08.551Z,101665.95
2019-04-28T17:41:34.360Z,101674.75
2019-04-28T17:44:00.217Z,101676.83
2019-04-28T17:46:26.029Z,101682.06
2019-04-28T17:48:59.254Z,101680.19
2019-04-28T17:51:25.052Z,101678.36
2019-04-28T17:53:50.956Z,101676.19
2019-04-28T17:56:16.743Z,101671.47
2019-04-28T17:58:42.605Z,101678.05
2019-04-28T18:01:26.436Z,101678.62
2019-04-28T18:04:00.061Z,101682.33
2019-04-28T18:06:27.751Z,101682.33
2019-04-28T18:08:53.553Z,101684.69
2019-04-28T18:11:19.360Z,101691.77
2019-04-28T18:13:45.175Z,101693.47
2019-04-28T18:16:27.543Z,101696.02
2019-04-28T18:19:01.139Z,101697.69
2019-04-28T18:21:27.053Z,101695.33
2019-04-28T18:23:52.866Z,101695.33
2019-04-28T18:26:18.648Z,101688.42
2019-04-28T18:28:44.437Z,101697.53
2019-04-28T18:31:14.922Z,101700.38
2019-04-28T18:33:59.138Z,101693.98
2019-04-28T18:36:32.609Z,101691.48
2019-04-28T18:39:00.306Z,101691.48
2019-04-28T18:41:39.889Z,101702.26
2019-04-28T18:44:07.581Z,101710.67
2019-04-28T18:46:33.384Z,101706.80
2019-04-28T18:48:59.166Z,101713.38
2019-04-28T18:51:25.168Z,101720.11
2019-04-28T18:53:50.972Z,101727.84
2019-04-28T18:56:16.773Z,101727.84
2019-04-28T18:58:42.560Z,101724.98
2019-04-28T19:01:26.715Z,101720.78
2019-04-28T19:03:52.507Z,101730.20
2019-04-28T19:06:18.299Z,101730.20
2019-04-28T19:08:54.792Z,101729.17
2019-04-28T19:11:39.072Z,101729.17
2019-04-28T19:14:06.993Z,101735.91
2019-04-28T19:16:52.620Z,101735.73
2019-04-28T19:19:20.308Z,101734.23
2019-04-28T19:21:55.742Z,101735.55
2019-04-28T19:24:22.191Z,101745.47
2019-04-28T19:26:48.001Z,101743.61
2019-04-28T19:29:13.779Z,101743.61
2019-04-28T19:31:39.575Z,101743.13
2019-04-28T19:34:05.372Z,101752.38
2019-04-28T19:36:31.172Z,101747.70
2019-04-28T19:39:03.541Z,101746.67
2019-04-28T19:41:24.668Z,101749.34
2019-04-28T19:43:50.456Z,101749.34
2019-04-28T19:46:17.866Z,101754.52
2019-04-28T19:48:43.649Z,101757.55
2019-04-28T19:51:09.437Z,101757.71
2019-04-28T19:53:35.235Z,101755.22
2019-04-28T19:56:05.528Z,101763.70
2019-04-28T19:58:33.228Z,101769.14
2019-04-28T20:01:00.947Z,101766.05
2019-04-28T20:03:26.738Z,101766.37
2019-04-28T20:05:52.515Z,101774.30
2019-04-28T20:08:18.308Z,101772.24
2019-04-28T20:10:44.101Z,101772.76
2019-04-28T20:13:09.907Z,101779.17
2019-04-28T20:15:35.689Z,101784.05
2019-04-28T20:18:01.497Z,101790.46
2019-04-28T20:20:27.291Z,101789.60
2019-04-28T20:22:53.092Z,101794.64
2019-04-28T20:25:18.875Z,101793.47
2019-04-28T20:27:44.666Z,101794.47
2019-04-28T20:30:10.656Z,101792.27
2019-04-28T20:32:43.899Z,101730.68
2019-04-28T20:35:10.783Z,101790.75
2019-04-28T20:37:38.465Z,101796.27
2019-04-28T20:40:15.750Z,101793.23
2019-04-28T20:42:55.221Z,101795.20
2019-04-28T20:45:21.015Z,101795.82
2019-04-28T20:47:46.807Z,101795.82
2019-04-28T20:50:12.607Z,101796.99
2019-04-28T20:52:38.400Z,101802.23
2019-04-28T20:55:05.299Z,101794.44
2019-04-28T20:57:31.087Z,101799.78
2019-04-28T20:59:56.891Z,101819.74
2019-04-28T21:02:22.671Z,101807.08
2019-04-28T21:04:48.463Z,101813.84
2019-04-28T21:07:14.356Z,101809.28
2019-04-28T21:09:40.161Z,101809.28
2019-04-28T21:12:05.936Z,101821.92
2019-04-28T21:14:31.737Z,101821.27
2019-04-28T21:16:57.516Z,101822.73
2019-04-28T21:19:23.312Z,101821.99
2019-04-28T21:21:49.122Z,101828.02
2019-04-28T21:24:16.932Z,101827.63
2019-04-28T21:26:42.628Z,101834.23
2019-04-28T21:29:08.415Z,101836.34
2019-04-28T21:31:34.206Z,101831.27
2019-04-28T21:34:00.044Z,101832.70
2019-04-28T21:36:25.825Z,101830.67
2019-04-28T21:38:51.608Z,101833.77
2019-04-28T21:41:17.399Z,101833.37
2019-04-28T21:43:45.082Z,101833.61
2019-04-28T21:46:15.387Z,101826.41
2019-04-28T21:48:45.845Z,101838.98
2019-04-28T21:51:12.304Z,101836.69
2019-04-28T21:53:38.236Z,101844.89
2019-04-28T21:56:04.328Z,101836.58
2019-04-28T21:58:33.289Z,101844.59
2019-04-28T22:00:58.011Z,101836.10
2019-04-28T22:03:23.901Z,101842.58
2019-04-28T22:05:49.710Z,101832.64
2019-04-28T22:08:15.992Z,101835.52
2019-04-28T22:10:41.809Z,101831.38
2019-04-28T22:13:07.587Z,101831.38
2019-04-28T22:15:33.415Z,101831.42
2019-04-28T22:17:59.184Z,101830.45
2019-04-28T22:20:24.976Z,101826.52
2019-04-28T22:22:50.804Z,101826.87
2019-04-28T22:25:18.487Z,101829.67
2019-04-28T22:27:44.275Z,101835.28
2019-04-28T22:30:10.258Z,101831.38
2019-04-28T22:32:36.580Z,101836.77
2019-04-28T22:35:04.192Z,101840.98
2019-04-28T22:37:29.984Z,101840.09
2019-04-28T22:39:55.765Z,101842.95
2019-04-28T22:42:21.562Z,101846.68
2019-04-28T22:44:47.464Z,101845.34
2019-04-28T22:47:13.239Z,101852.06
2019-04-28T22:49:39.021Z,101855.32
2019-04-28T22:52:04.812Z,101850.59
2019-04-28T22:54:32.514Z,101855.27
2019-04-28T22:57:00.216Z,101855.27
2019-04-28T22:59:30.666Z,101850.48
2019-04-28T23:02:00.998Z,101849.25
2019-04-28T23:04:28.691Z,101846.69
2019-04-28T23:06:54.587Z,101846.91
2019-04-28T23:09:20.669Z,101850.72
2019-04-28T23:11:46.490Z,101853.11
2019-04-28T23:14:12.271Z,101859.43
2019-04-28T23:16:38.050Z,101859.64
2019-04-28T23:19:05.749Z,101859.67
2019-04-28T23:21:33.439Z,101861.71
2019-04-28T23:23:59.236Z,101853.94
2019-04-28T23:26:25.011Z,101851.48
2019-04-28T23:28:50.809Z,101865.11
2019-04-28T23:31:16.594Z,101864.98
2019-04-28T23:33:42.461Z,101861.61
2019-04-28T23:36:08.330Z,101864.00
2019-04-28T23:38:34.145Z,101868.03
2019-04-28T23:41:13.788Z,101856.98
2019-04-28T23:43:39.595Z,101871.19
2019-04-28T23:46:05.379Z,101871.19
2019-04-28T23:48:31.172Z,101866.34
2019-04-28T23:51:07.647Z,101856.27
2019-04-28T23:53:51.522Z,101852.93
2019-04-28T23:56:17.261Z,101852.35
2019-04-28T23:58:43.176Z,101859.77
